Hauptseite
METAR-TAF:

METAR-TAF

Flughäfen :

Militärflugplatz Volkel

Uden, Niederlande

Breite: 51-39N, Länge: 005-42E, Höhe: 22 m

Beobachtung

Neuester Wetterbericht von vor 24 Minuten, um 03:25 UTC
Wind 11 kt aus Südwest
Temperatur 9°C
Luftfeuchtigkeit 81%
Luftdruck 1020 hPa
Sichtweite 10 km oder mehr
Geschlossene Wolkendecke in der Höhe von 1700 ft

METAR: EHVK 210325Z AUTO 22011KT 9999 OVC017 09/06 Q1020 WHT

Zeit: 04:49 (03:49 UTC)

Prognose

Neuester Wetterbericht von vor 2 Stunden und 26 Minuten, um 01:23 UTC
Gültige Prognose vom 21 um 02 UTC bis 21 um 14 UTC
Wind 10 kt aus Südwest
Sichtweite 10 km oder mehr
Aufgelockert bewölkt in der Höhe von 1500 ft
Durchbrochene Bewölkung in der Höhe von 2000 ft
Übergehend zu
vom 21 um 10 UTC bis 21 um 12 UTC
Wind 12 kt aus Süd/Südwest, Böen bis zu 22 kt

TAF: EHVK 210123Z 2102/2114 22010KT 9999 SCT015 BKN020 BECMG 2110/2112 21012G22KT

Wetterbeobachtungen und Prognosen von mehr als 4000 Flughäfen (METAR und TAF Bericht).

Die verfügbaren Stationen werden durch gelbe und rote Markierungen auf der Karte dargestellt.

Führen Sie die Maus auf sie, um den Namen der Station zu sehen.

Darauf klicken, um die Beobachtung von Wetterbeobachtungen und Prognosen zu sehen.

Um die Karte zu ändern : klicken Sie auf den grünen Tasten mit einem schwarzen Kreuz Zum Vergrößern, auf den grünen Button mit einem Gedankenstrich zu verkleinern, oder auf die grünen Pfeile für benachbarte Karten.


METAR-TAF: